Time;durP1;ratioP1;P1;durP2;ratioP2;P2;SDS_P1;SDS_P2;PMS_P1;PMS_P2;Temp;Humidity;BMP_temperature;BMP_pressure;BME280_temperature;BME280_humidity;BME280_pressure;Samples;Min_cycle;Max_cycle;Signal;HPM_P1;HPM_P2
2023/10/03 00:01:40;;;;;;;1999.90;999.90;;;;;;;;;;6210994;23;20021;-80
2023/10/03 00:04:09;;;;;;;1999.90;999.90;;;;;;;;;;6211461;23;20021;-81
2023/10/03 00:06:36;;;;;;;1999.90;999.90;;;;;;;;;;6210462;23;20020;-80
2023/10/03 00:09:03;;;;;;;1999.90;999.90;;;;;;;;;;6208957;23;20063;-80
2023/10/03 00:11:33;;;;;;;1999.90;999.90;;;;;;;;;;6210665;23;20039;-80
2023/10/03 00:14:03;;;;;;;1999.90;999.90;;;;;;;;;;6211433;23;20024;-80
2023/10/03 00:16:33;;;;;;;1999.90;999.90;;;;;;;;;;6210179;23;20111;-81
2023/10/03 00:19:01;;;;;;;1999.90;999.90;;;;;;;;;;6208905;23;20071;-80
2023/10/03 00:21:28;;;;;;;1999.90;999.90;;;;;;;;;;6210614;23;20508;-80
2023/10/03 00:23:55;;;;;;;1999.90;999.90;;;;;;;;;;6211555;23;20029;-81
2023/10/03 00:26:22;;;;;;;1999.90;999.90;;;;;;;;;;6210471;23;20384;-81
2023/10/03 00:28:49;;;;;;;1999.90;999.90;;;;;;;;;;6210348;23;20059;-80
2023/10/03 00:31:16;;;;;;;1999.90;999.90;;;;;;;;;;6209018;23;20024;-81
2023/10/03 00:33:42;;;;;;;1999.90;999.90;;;;;;;;;;6210480;23;20028;-80
2023/10/03 00:36:22;;;;;;;1999.90;999.90;;;;;;;;;;6207819;23;20028;-80
2023/10/03 00:38:50;;;;;;;1999.90;999.90;;;;;;;;;;6208471;23;20100;-80
2023/10/03 00:41:19;;;;;;;1999.90;999.90;;;;;;;;;;6210461;23;20025;-80
2023/10/03 00:43:58;;;;;;;1999.90;999.90;;;;;;;;;;6208373;23;20421;-81
2023/10/03 00:46:26;;;;;;;1999.90;999.90;;;;;;;;;;6210238;23;20027;-81
2023/10/03 00:48:53;;;;;;;1999.90;999.90;;;;;;;;;;6210096;23;20078;-81
2023/10/03 00:51:22;;;;;;;1999.90;999.90;;;;;;;;;;6210635;23;20017;-81
2023/10/03 00:53:51;;;;;;;1999.90;999.90;;;;;;;;;;6208289;23;20465;-81
2023/10/03 00:56:19;;;;;;;1999.90;999.90;;;;;;;;;;6209545;23;20047;-81
2023/10/03 00:58:45;;;;;;;1999.90;999.90;;;;;;;;;;6210543;23;20032;-81
2023/10/03 01:01:12;;;;;;;1999.90;999.90;;;;;;;;;;6208854;23;20024;-81
2023/10/03 01:03:39;;;;;;;1999.90;999.90;;;;;;;;;;6199880;23;20109;-88
2023/10/03 01:06:08;;;;;;;1999.90;999.90;;;;;;;;;;6180463;23;20029;-86
2023/10/03 01:08:39;;;;;;;1999.90;999.90;;;;;;;;;;6180773;23;20021;-85
2023/10/03 01:11:07;;;;;;;1999.90;999.90;;;;;;;;;;6180861;23;20025;-84
2023/10/03 01:13:34;;;;;;;1999.90;999.90;;;;;;;;;;6181093;23;20017;-84
2023/10/03 01:16:03;;;;;;;1999.90;999.90;;;;;;;;;;6180620;23;20017;-84
2023/10/03 01:18:31;;;;;;;1999.90;999.90;;;;;;;;;;6180845;23;20052;-85
2023/10/03 01:21:00;;;;;;;1999.90;999.90;;;;;;;;;;6180714;23;20032;-85
2023/10/03 01:23:32;;;;;;;1999.90;999.90;;;;;;;;;;6181255;23;20084;-89
2023/10/03 01:25:59;;;;;;;1999.90;999.90;;;;;;;;;;6180727;23;20021;-87
2023/10/03 01:28:26;;;;;;;1999.90;999.90;;;;;;;;;;6181212;23;20021;-84
2023/10/03 01:30:53;;;;;;;1999.90;999.90;;;;;;;;;;6180874;23;20056;-86
2023/10/03 01:33:22;;;;;;;1999.90;999.90;;;;;;;;;;6180494;23;20043;-86
2023/10/03 01:35:49;;;;;;;1999.90;999.90;;;;;;;;;;6180700;23;20096;-88
2023/10/03 01:38:16;;;;;;;1999.90;999.90;;;;;;;;;;6153868;23;20999;-84
2023/10/03 01:40:44;;;;;;;1999.90;999.90;;;;;;;;;;6180132;23;20025;-84
2023/10/03 01:43:11;;;;;;;1999.90;999.90;;;;;;;;;;6179651;23;20025;-84
2023/10/03 01:45:37;;;;;;;1999.90;999.90;;;;;;;;;;6180776;23;20033;-85
2023/10/03 01:48:05;;;;;;;1999.90;999.90;;;;;;;;;;6180845;23;20025;-83
2023/10/03 01:50:33;;;;;;;1999.90;999.90;;;;;;;;;;6181908;23;20025;-85
2023/10/03 01:53:00;;;;;;;1999.90;999.90;;;;;;;;;;6181965;23;20025;-85
2023/10/03 01:55:27;;;;;;;1999.90;999.90;;;;;;;;;;6181918;23;20044;-86
2023/10/03 01:57:55;;;;;;;1999.90;999.90;;;;;;;;;;6181594;23;20027;-83
2023/10/03 02:00:25;;;;;;;1999.90;999.90;;;;;;;;;;6181302;23;20032;-89
2023/10/03 02:02:51;;;;;;;1999.90;999.90;;;;;;;;;;6181969;23;20024;-83
2023/10/03 02:05:20;;;;;;;1999.90;999.90;;;;;;;;;;6211147;23;20036;-87
2023/10/03 02:07:46;;;;;;;1999.90;999.90;;;;;;;;;;6210925;23;20455;-84
2023/10/03 02:10:13;;;;;;;1999.90;999.90;;;;;;;;;;6211182;23;20024;-85
2023/10/03 02:12:48;;;;;;;1999.90;999.90;;;;;;;;;;6211365;23;20368;-84
2023/10/03 02:15:20;;;;;;;1999.90;999.90;;;;;;;;;;6212147;23;20418;-87
2023/10/03 02:17:49;;;;;;;1999.90;999.90;;;;;;;;;;6211579;23;20539;-86
2023/10/03 02:20:20;;;;;;;1999.90;999.90;;;;;;;;;;6211082;23;20020;-84
2023/10/03 02:22:53;;;;;;;1999.90;999.90;;;;;;;;;;6211429;23;20054;-83
2023/10/03 02:25:20;;;;;;;1999.90;999.90;;;;;;;;;;6211648;23;20020;-85
2023/10/03 02:27:48;;;;;;;1999.90;999.90;;;;;;;;;;6212393;23;20020;-84
2023/10/03 02:30:23;;;;;;;1999.90;999.90;;;;;;;;;;6212576;23;20056;-83
2023/10/03 02:32:50;;;;;;;1999.90;999.90;;;;;;;;;;6212952;23;20021;-84
2023/10/03 02:35:18;;;;;;;1999.90;999.90;;;;;;;;;;6212966;23;20027;-83
2023/10/03 02:37:47;;;;;;;1999.90;999.90;;;;;;;;;;6212599;23;20021;-84
2023/10/03 02:40:15;;;;;;;1999.90;999.90;;;;;;;;;;6212234;23;20112;-86
2023/10/03 02:42:42;;;;;;;1999.90;999.90;;;;;;;;;;6211768;23;20139;-84
2023/10/03 02:45:09;;;;;;;1999.90;999.90;;;;;;;;;;6212532;23;20082;-87
2023/10/03 02:47:39;;;;;;;1999.90;999.90;;;;;;;;;;6212632;23;20076;-85
2023/10/03 02:50:07;;;;;;;1999.90;999.90;;;;;;;;;;6212100;23;20198;-83
2023/10/03 02:52:35;;;;;;;1999.90;999.90;;;;;;;;;;6211983;23;20099;-84
2023/10/03 02:55:03;;;;;;;1999.90;999.90;;;;;;;;;;6212553;23;20047;-86
2023/10/03 02:57:30;;;;;;;1999.90;999.90;;;;;;;;;;6212150;23;20079;-84
2023/10/03 02:59:57;;;;;;;1999.90;999.90;;;;;;;;;;6213243;23;20020;-84
2023/10/03 03:02:24;;;;;;;1999.90;999.90;;;;;;;;;;6213221;23;20021;-85
2023/10/03 03:04:52;;;;;;;1999.90;999.90;;;;;;;;;;6213665;23;20204;-86
2023/10/03 03:07:24;;;;;;;1999.90;999.90;;;;;;;;;;6213588;23;20059;-84
2023/10/03 03:09:56;;;;;;;1999.90;999.90;;;;;;;;;;6213427;23;20016;-83
2023/10/03 03:12:23;;;;;;;1999.90;999.90;;;;;;;;;;6213008;23;20067;-85
2023/10/03 03:14:49;;;;;;;1999.90;999.90;;;;;;;;;;6212816;23;20363;-84
2023/10/03 03:17:18;;;;;;;1999.90;999.90;;;;;;;;;;6212783;23;20024;-83
2023/10/03 03:19:45;;;;;;;1999.90;999.90;;;;;;;;;;6212415;23;20071;-85
2023/10/03 03:22:16;;;;;;;1999.90;999.90;;;;;;;;;;6212206;23;20024;-84
2023/10/03 03:24:42;;;;;;;1999.90;999.90;;;;;;;;;;6211719;23;20020;-84
2023/10/03 03:27:11;;;;;;;1999.90;999.90;;;;;;;;;;6211396;23;20025;-86
2023/10/03 03:29:57;;;;;;;1999.90;999.90;;;;;;;;;;6212257;23;20024;-84
2023/10/03 03:32:27;;;;;;;1999.90;999.90;;;;;;;;;;6211865;23;20051;-84
2023/10/03 03:34:53;;;;;;;1999.90;999.90;;;;;;;;;;6211228;23;20025;-84
2023/10/03 03:37:22;;;;;;;1999.90;999.90;;;;;;;;;;6211576;23;20021;-86
2023/10/03 03:39:56;;;;;;;1999.90;999.90;;;;;;;;;;6210986;23;20032;-84
2023/10/03 03:42:23;;;;;;;1999.90;999.90;;;;;;;;;;6211021;23;20543;-90
2023/10/03 03:44:49;;;;;;;1999.90;999.90;;;;;;;;;;6211506;23;20387;-84
2023/10/03 03:47:18;;;;;;;1999.90;999.90;;;;;;;;;;6211610;23;20017;-84
2023/10/03 03:49:44;;;;;;;1999.90;999.90;;;;;;;;;;6210885;23;20459;-88
2023/10/03 03:52:13;;;;;;;1999.90;999.90;;;;;;;;;;6211284;23;20031;-85
2023/10/03 03:54:40;;;;;;;1999.90;999.90;;;;;;;;;;6211945;23;20024;-85
2023/10/03 03:57:07;;;;;;;1999.90;999.90;;;;;;;;;;6211173;23;20017;-84
2023/10/03 03:59:35;;;;;;;1999.90;999.90;;;;;;;;;;6211445;23;20017;-84
2023/10/03 04:02:03;;;;;;;1999.90;999.90;;;;;;;;;;6211240;23;20386;-84
2023/10/03 04:04:29;;;;;;;1999.90;999.90;;;;;;;;;;6212331;23;20023;-85
2023/10/03 04:06:56;;;;;;;1999.90;999.90;;;;;;;;;;6210922;23;20451;-84
2023/10/03 04:09:23;;;;;;;1999.90;999.90;;;;;;;;;;6211740;23;20491;-84
2023/10/03 04:11:50;;;;;;;1999.90;999.90;;;;;;;;;;6211785;23;20031;-85
2023/10/03 04:14:17;;;;;;;1999.90;999.90;;;;;;;;;;6212054;23;20099;-84
2023/10/03 04:16:44;;;;;;;1999.90;999.90;;;;;;;;;;6212234;23;20017;-84
2023/10/03 04:19:11;;;;;;;1999.90;999.90;;;;;;;;;;6211912;23;20096;-85
2023/10/03 04:21:40;;;;;;;1999.90;999.90;;;;;;;;;;6211979;23;20020;-84
2023/10/03 04:24:09;;;;;;;1999.90;999.90;;;;;;;;;;6212115;23;20017;-84
2023/10/03 04:26:39;;;;;;;1999.90;999.90;;;;;;;;;;6211256;23;20064;-85
2023/10/03 04:29:11;;;;;;;1999.90;999.90;;;;;;;;;;6211857;23;20105;-84
2023/10/03 04:31:37;;;;;;;1999.90;999.90;;;;;;;;;;6211617;23;20028;-85
2023/10/03 04:34:04;;;;;;;1999.90;999.90;;;;;;;;;;6211683;23;20078;-85
2023/10/03 04:36:32;;;;;;;1999.90;999.90;;;;;;;;;;6212074;23;20023;-84
2023/10/03 04:38:58;;;;;;;1999.90;999.90;;;;;;;;;;6211898;23;20058;-85
2023/10/03 04:41:27;;;;;;;1999.90;999.90;;;;;;;;;;6211102;23;20424;-84
2023/10/03 04:43:55;;;;;;;1999.90;999.90;;;;;;;;;;6211631;23;20016;-85
2023/10/03 04:46:24;;;;;;;1999.90;999.90;;;;;;;;;;6211941;23;20025;-85
2023/10/03 04:48:51;;;;;;;1999.90;999.90;;;;;;;;;;6211519;23;20024;-84
2023/10/03 04:51:17;;;;;;;1999.90;999.90;;;;;;;;;;6211678;23;20021;-84
2023/10/03 04:53:44;;;;;;;1999.90;999.90;;;;;;;;;;6211038;23;20021;-87
2023/10/03 04:56:11;;;;;;;1999.90;999.90;;;;;;;;;;6211369;23;20058;-83
2023/10/03 04:58:37;;;;;;;1999.90;999.90;;;;;;;;;;6211300;23;20021;-84
2023/10/03 05:01:05;;;;;;;1999.90;999.90;;;;;;;;;;6210995;23;20029;-83
2023/10/03 05:03:33;;;;;;;1999.90;999.90;;;;;;;;;;6210402;23;20021;-85
2023/10/03 05:06:01;;;;;;;1999.90;999.90;;;;;;;;;;6210232;23;20370;-82
2023/10/03 05:08:27;;;;;;;1999.90;999.90;;;;;;;;;;6211129;23;20136;-83
2023/10/03 05:10:54;;;;;;;1999.90;999.90;;;;;;;;;;6210894;23;20348;-83
2023/10/03 05:13:20;;;;;;;1999.90;999.90;;;;;;;;;;6210535;23;20087;-82
2023/10/03 05:15:47;;;;;;;1999.90;999.90;;;;;;;;;;6210389;23;20474;-83
2023/10/03 05:18:13;;;;;;;1999.90;999.90;;;;;;;;;;6210569;23;20028;-83
2023/10/03 05:20:42;;;;;;;1999.90;999.90;;;;;;;;;;6210740;23;20052;-84
2023/10/03 05:23:09;;;;;;;1999.90;999.90;;;;;;;;;;6212623;23;20021;-83
2023/10/03 05:25:37;;;;;;;1999.90;999.90;;;;;;;;;;6212562;23;20021;-83
2023/10/03 05:28:05;;;;;;;1999.90;999.90;;;;;;;;;;6212858;23;20021;-83
2023/10/03 05:30:34;;;;;;;1999.90;999.90;;;;;;;;;;6212947;23;20025;-83
2023/10/03 05:33:00;;;;;;;1999.90;999.90;;;;;;;;;;6212632;23;20024;-83
2023/10/03 05:35:27;;;;;;;1999.90;999.90;;;;;;;;;;6212674;23;20024;-82
2023/10/03 05:37:55;;;;;;;1999.90;999.90;;;;;;;;;;6213607;23;20017;-84
2023/10/03 05:40:22;;;;;;;1999.90;999.90;;;;;;;;;;6212623;23;20534;-84
2023/10/03 05:42:49;;;;;;;1999.90;999.90;;;;;;;;;;6213011;23;20116;-84
2023/10/03 05:45:15;;;;;;;1999.90;999.90;;;;;;;;;;6213733;23;20020;-84
2023/10/03 05:47:44;;;;;;;1999.90;999.90;;;;;;;;;;6214050;23;20099;-84
2023/10/03 05:50:10;;;;;;;1999.90;999.90;;;;;;;;;;6214389;23;20025;-84
2023/10/03 05:52:37;;;;;;;1999.90;999.90;;;;;;;;;;6214214;23;20091;-84
2023/10/03 05:55:06;;;;;;;1999.90;999.90;;;;;;;;;;6213959;23;20027;-84
2023/10/03 05:57:33;;;;;;;1999.90;999.90;;;;;;;;;;6214739;23;20020;-84
2023/10/03 05:59:59;;;;;;;1999.90;999.90;;;;;;;;;;6216035;23;20027;-83
2023/10/03 06:02:26;;;;;;;1999.90;999.90;;;;;;;;;;6222771;23;20104;-82
2023/10/03 06:04:54;;;;;;;1999.90;999.90;;;;;;;;;;6218647;23;20024;-84
2023/10/03 06:07:20;;;;;;;1999.90;999.90;;;;;;;;;;6217190;23;20027;-81
2023/10/03 06:09:47;;;;;;;1999.90;999.90;;;;;;;;;;6216613;23;20021;-81
2023/10/03 06:12:16;;;;;;;1999.90;999.90;;;;;;;;;;6216866;23;20020;-83
2023/10/03 06:14:47;;;;;;;1999.90;999.90;;;;;;;;;;6216319;23;20095;-83
2023/10/03 06:17:15;;;;;;;1999.90;999.90;;;;;;;;;;6215937;23;20046;-82
2023/10/03 06:19:42;;;;;;;1999.90;999.90;;;;;;;;;;6216903;23;20028;-81
2023/10/03 06:22:10;;;;;;;1999.90;999.90;;;;;;;;;;6215977;23;20021;-83
2023/10/03 06:24:37;;;;;;;1999.90;999.90;;;;;;;;;;6214694;23;20016;-82
2023/10/03 06:27:07;;;;;;;1999.90;999.90;;;;;;;;;;6215959;23;20119;-83
2023/10/03 06:29:36;;;;;;;1999.90;999.90;;;;;;;;;;6216746;23;20017;-82
2023/10/03 06:32:02;;;;;;;1999.90;999.90;;;;;;;;;;6215503;23;20026;-83
2023/10/03 06:34:29;;;;;;;1999.90;999.90;;;;;;;;;;6215862;23;20034;-83
2023/10/03 06:36:56;;;;;;;1999.90;999.90;;;;;;;;;;6218703;23;20486;-84
2023/10/03 06:39:22;;;;;;;1999.90;999.90;;;;;;;;;;6217847;23;20456;-82
2023/10/03 06:41:50;;;;;;;1999.90;999.90;;;;;;;;;;6222096;23;20044;-82
2023/10/03 06:44:17;;;;;;;1999.90;999.90;;;;;;;;;;6218018;23;20020;-83
2023/10/03 06:46:44;;;;;;;1999.90;999.90;;;;;;;;;;6216086;23;20027;-84
2023/10/03 06:49:11;;;;;;;1999.90;999.90;;;;;;;;;;6216995;23;20020;-84
2023/10/03 06:51:38;;;;;;;1999.90;999.90;;;;;;;;;;6216196;23;20108;-84
2023/10/03 06:54:04;;;;;;;1999.90;999.90;;;;;;;;;;6217741;23;20034;-84
2023/10/03 06:56:32;;;;;;;1999.90;999.90;;;;;;;;;;6217144;23;20027;-84
2023/10/03 06:58:59;;;;;;;1999.90;999.90;;;;;;;;;;6216528;23;20035;-86
2023/10/03 07:01:27;;;;;;;1999.90;999.90;;;;;;;;;;6216568;23;20032;-86
2023/10/03 07:03:56;;;;;;;1999.90;999.90;;;;;;;;;;6217224;23;20099;-85
2023/10/03 07:06:23;;;;;;;1999.90;999.90;;;;;;;;;;6219477;23;20351;-85
2023/10/03 07:08:49;;;;;;;1999.90;999.90;;;;;;;;;;6217105;23;20115;-84
2023/10/03 07:11:16;;;;;;;1999.90;999.90;;;;;;;;;;6214614;23;20055;-84
2023/10/03 07:13:43;;;;;;;1999.90;999.90;;;;;;;;;;6212426;23;20036;-85
2023/10/03 07:16:11;;;;;;;1999.90;999.90;;;;;;;;;;6212491;23;20027;-85
2023/10/03 07:18:38;;;;;;;1999.90;999.90;;;;;;;;;;6211974;23;20479;-86
2023/10/03 07:21:06;;;;;;;1999.90;999.90;;;;;;;;;;6212450;23;20510;-85
2023/10/03 07:23:32;;;;;;;1999.90;999.90;;;;;;;;;;6212621;23;20029;-88
2023/10/03 07:25:59;;;;;;;1999.90;999.90;;;;;;;;;;6213335;23;20023;-85
2023/10/03 07:28:25;;;;;;;1999.90;999.90;;;;;;;;;;6212759;23;20016;-87
2023/10/03 07:30:52;;;;;;;1999.90;999.90;;;;;;;;;;6212404;23;20027;-84
2023/10/03 07:33:19;;;;;;;1999.90;999.90;;;;;;;;;;6212981;23;20100;-87
2023/10/03 07:35:46;;;;;;;1999.90;999.90;;;;;;;;;;6212300;23;20021;-85
2023/10/03 07:38:14;;;;;;;1999.90;999.90;;;;;;;;;;6212252;23;20399;-85
2023/10/03 07:40:41;;;;;;;1999.90;999.90;;;;;;;;;;6213412;23;20031;-86
2023/10/03 07:43:09;;;;;;;1999.90;999.90;;;;;;;;;;6212118;23;20032;-86
2023/10/03 07:45:37;;;;;;;1999.90;999.90;;;;;;;;;;6212147;23;20079;-86
2023/10/03 07:48:05;;;;;;;1999.90;999.90;;;;;;;;;;6211923;23;20020;-85
2023/10/03 07:50:32;;;;;;;1999.90;999.90;;;;;;;;;;6212300;23;20042;-89
2023/10/03 07:52:58;;;;;;;1999.90;999.90;;;;;;;;;;6212207;23;20031;-86
2023/10/03 07:55:26;;;;;;;1999.90;999.90;;;;;;;;;;6211979;23;20027;-86
2023/10/03 07:57:55;;;;;;;1999.90;999.90;;;;;;;;;;6211925;23;20027;-88
2023/10/03 08:00:26;;;;;;;1999.90;999.90;;;;;;;;;;6212212;23;20025;-86
2023/10/03 08:02:52;;;;;;;1999.90;999.90;;;;;;;;;;6212482;23;20021;-85
2023/10/03 08:05:20;;;;;;;1999.90;999.90;;;;;;;;;;6211372;23;20465;-86
2023/10/03 08:07:48;;;;;;;1999.90;999.90;;;;;;;;;;6211825;23;20016;-86
2023/10/03 08:10:16;;;;;;;1999.90;999.90;;;;;;;;;;6211869;23;20032;-86
2023/10/03 08:12:44;;;;;;;1999.90;999.90;;;;;;;;;;6211278;23;20471;-86
2023/10/03 08:15:17;;;;;;;1999.90;999.90;;;;;;;;;;6211146;23;20420;-87
2023/10/03 08:17:45;;;;;;;1999.90;999.90;;;;;;;;;;6212187;23;20078;-86
2023/10/03 08:20:14;;;;;;;1999.90;999.90;;;;;;;;;;6211229;23;20024;-86
2023/10/03 08:22:41;;;;;;;1999.90;999.90;;;;;;;;;;6211557;23;20098;-85
2023/10/03 08:25:08;;;;;;;1999.90;999.90;;;;;;;;;;6210853;23;20028;-86
2023/10/03 08:27:35;;;;;;;1999.90;999.90;;;;;;;;;;6210365;23;20091;-87
2023/10/03 08:30:04;;;;;;;1999.90;999.90;;;;;;;;;;6212416;23;20021;-85
2023/10/03 08:32:31;;;;;;;1999.90;999.90;;;;;;;;;;6212377;23;20028;-83
2023/10/03 08:34:58;;;;;;;1999.90;999.90;;;;;;;;;;6212072;23;20467;-88
2023/10/03 08:37:25;;;;;;;1999.90;999.90;;;;;;;;;;6212586;23;20017;-86
2023/10/03 08:39:52;;;;;;;1999.90;999.90;;;;;;;;;;6212647;23;20033;-86
2023/10/03 08:42:22;;;;;;;1999.90;999.90;;;;;;;;;;6212256;23;20311;-85
2023/10/03 08:44:51;;;;;;;1999.90;999.90;;;;;;;;;;6212141;23;20031;-86
2023/10/03 08:47:21;;;;;;;1999.90;999.90;;;;;;;;;;6211093;23;20052;-85
2023/10/03 08:49:56;;;;;;;1999.90;999.90;;;;;;;;;;6211435;23;20027;-86
2023/10/03 08:52:38;;;;;;;1999.90;999.90;;;;;;;;;;6211757;23;20032;-86
2023/10/03 08:55:07;;;;;;;1999.90;999.90;;;;;;;;;;6210898;23;20025;-86
2023/10/03 08:57:35;;;;;;;1999.90;999.90;;;;;;;;;;6211429;23;20021;-88
2023/10/03 09:00:03;;;;;;;1999.90;999.90;;;;;;;;;;6213066;23;20082;-86
2023/10/03 09:02:45;;;;;;;1999.90;999.90;;;;;;;;;;6212324;23;20542;-84
2023/10/03 09:05:15;;;;;;;1999.90;999.90;;;;;;;;;;6212892;23;20016;-88
2023/10/03 09:07:44;;;;;;;1999.90;999.90;;;;;;;;;;6212748;23;20055;-88
2023/10/03 09:10:22;;;;;;;1999.90;999.90;;;;;;;;;;6213523;23;20020;-84
2023/10/03 09:13:03;;;;;;;1999.90;999.90;;;;;;;;;;6212794;23;20179;-86
2023/10/03 09:15:37;;;;;;;1999.90;999.90;;;;;;;;;;6212738;23;20029;-86
2023/10/03 09:18:10;;;;;;;1999.90;999.90;;;;;;;;;;6213553;23;20025;-88
2023/10/03 09:20:36;;;;;;;1999.90;999.90;;;;;;;;;;6212583;23;20020;-86
2023/10/03 09:23:05;;;;;;;1999.90;999.90;;;;;;;;;;6212535;23;20036;-85
2023/10/03 09:25:32;;;;;;;1999.90;999.90;;;;;;;;;;6213118;23;20027;-89
2023/10/03 09:28:04;;;;;;;1999.90;999.90;;;;;;;;;;6211960;23;20021;-88
2023/10/03 09:30:37;;;;;;;1999.90;999.90;;;;;;;;;;6212060;23;20027;-85
2023/10/03 09:33:07;;;;;;;1999.90;999.90;;;;;;;;;;6211949;23;20052;-86
2023/10/03 09:35:33;;;;;;;1999.90;999.90;;;;;;;;;;6211705;23;20028;-87
2023/10/03 09:38:04;;;;;;;1999.90;999.90;;;;;;;;;;6211605;23;20028;-87
2023/10/03 09:40:47;;;;;;;1999.90;999.90;;;;;;;;;;6212255;23;20055;-87
2023/10/03 09:43:16;;;;;;;1999.90;999.90;;;;;;;;;;6212056;23;20024;-88
2023/10/03 09:45:45;;;;;;;1999.90;999.90;;;;;;;;;;6211669;23;20401;-88
2023/10/03 09:48:15;;;;;;;1999.90;999.90;;;;;;;;;;6211636;23;20023;-84
2023/10/03 09:50:51;;;;;;;1999.90;999.90;;;;;;;;;;6211256;23;20038;-84
2023/10/03 09:53:19;;;;;;;1999.90;999.90;;;;;;;;;;6210990;23;20103;-86
2023/10/03 09:55:46;;;;;;;1999.90;999.90;;;;;;;;;;6210329;23;20021;-89
2023/10/03 09:58:21;;;;;;;1999.90;999.90;;;;;;;;;;6210545;23;20028;-86
2023/10/03 10:00:51;;;;;;;1999.90;999.90;;;;;;;;;;6210752;23;20447;-88
2023/10/03 10:03:26;;;;;;;1999.90;999.90;;;;;;;;;;6211364;23;20021;-88
2023/10/03 10:05:59;;;;;;;1999.90;999.90;;;;;;;;;;6212637;23;20016;-88
2023/10/03 10:08:32;;;;;;;1999.90;999.90;;;;;;;;;;6210293;23;20020;-87
2023/10/03 10:11:07;;;;;;;1999.90;999.90;;;;;;;;;;6212885;23;20463;-87
2023/10/03 10:13:36;;;;;;;;;;;;;;;;;;6212683;23;20339;-90
2023/10/03 10:16:15;;;;;;;1999.90;999.90;;;;;;;;;;6212430;23;19919;-86
2023/10/03 10:18:59;;;;;;;1999.90;999.90;;;;;;;;;;6212055;23;20132;-88
2023/10/03 10:21:30;;;;;;;1999.90;999.90;;;;;;;;;;6211601;23;20027;-89
2023/10/03 10:24:24;;;;;;;1999.90;999.90;;;;;;;;;;6212393;23;20020;-88
2023/10/03 10:26:53;;;;;;;1999.90;999.90;;;;;;;;;;6212982;23;20025;-84
2023/10/03 10:29:21;;;;;;;1999.90;999.90;;;;;;;;;;6214033;23;20024;-83
2023/10/03 10:31:57;;;;;;;1999.90;999.90;;;;;;;;;;6212277;23;20020;-86
2023/10/03 10:34:46;;;;;;;1999.90;999.90;;;;;;;;;;6213504;23;20025;-88
2023/10/03 10:37:17;;;;;;;1999.90;999.90;;;;;;;;;;6214412;23;20455;-90
2023/10/03 10:40:09;;;;;;;1999.90;999.90;;;;;;;;;;6214634;23;20423;-84
2023/10/03 10:43:06;;;;;;;1999.90;999.90;;;;;;;;;;6213498;23;20016;-90
2023/10/03 10:45:38;;;;;;;1999.90;999.90;;;;;;;;;;6214790;23;20021;-88
2023/10/03 10:48:06;;;;;;;1999.90;999.90;;;;;;;;;;6213903;23;20026;-88
2023/10/03 10:51:07;;;;;;;1999.90;999.90;;;;;;;;;;6213742;23;20096;-86
2023/10/03 10:53:38;;;;;;;1999.90;999.90;;;;;;;;;;6213674;23;20024;-87
2023/10/03 10:56:08;;;;;;;1999.90;999.90;;;;;;;;;;6217826;23;20017;-87
2023/10/03 10:58:46;;;;;;;1999.90;999.90;;;;;;;;;;6218763;23;20024;-85
2023/10/03 11:01:13;;;;;;;1999.90;999.90;;;;;;;;;;6220814;23;20020;-86
2023/10/03 11:03:40;;;;;;;1999.90;999.90;;;;;;;;;;6217555;23;20031;-85
2023/10/03 11:06:14;;;;;;;1999.90;999.90;;;;;;;;;;6218359;23;20469;-88
2023/10/03 11:08:46;;;;;;;1999.90;999.90;;;;;;;;;;6220396;23;20076;-86
2023/10/03 11:11:12;;;;;;;1999.90;999.90;;;;;;;;;;6219569;23;20451;-84
2023/10/03 11:13:45;;;;;;;1999.90;999.90;;;;;;;;;;6221350;23;20077;-90
2023/10/03 11:16:12;;;;;;;1999.90;999.90;;;;;;;;;;6218027;23;20074;-86
2023/10/03 11:18:39;;;;;;;1999.90;999.90;;;;;;;;;;6220334;23;20028;-87
2023/10/03 11:21:08;;;;;;;1999.90;999.90;;;;;;;;;;6219108;23;20023;-88
2023/10/03 11:23:35;;;;;;;1999.90;999.90;;;;;;;;;;6218432;23;20017;-88
2023/10/03 11:26:04;;;;;;;1999.90;999.90;;;;;;;;;;6219010;23;20028;-85
2023/10/03 11:28:44;;;;;;;1999.90;999.90;;;;;;;;;;6218747;23;20025;-85
2023/10/03 11:31:13;;;;;;;1999.90;999.90;;;;;;;;;;6218198;23;20023;-85
2023/10/03 11:33:43;;;;;;;1999.90;999.90;;;;;;;;;;6218606;23;20024;-88
2023/10/03 11:36:10;;;;;;;1999.90;999.90;;;;;;;;;;6219710;23;20316;-88
2023/10/03 11:38:44;;;;;;;1999.90;999.90;;;;;;;;;;6216933;23;20329;-87
2023/10/03 11:41:12;;;;;;;1999.90;999.90;;;;;;;;;;6218377;23;20020;-87
2023/10/03 11:43:46;;;;;;;1999.90;999.90;;;;;;;;;;6219481;23;20318;-87
2023/10/03 11:46:12;;;;;;;1999.90;999.90;;;;;;;;;;6218058;23;20017;-87
2023/10/03 11:48:39;;;;;;;1999.90;999.90;;;;;;;;;;6219223;23;20095;-88
2023/10/03 11:51:06;;;;;;;1999.90;999.90;;;;;;;;;;6220576;23;20342;-86
2023/10/03 11:53:33;;;;;;;1999.90;999.90;;;;;;;;;;6220589;23;20028;-90
2023/10/03 11:56:00;;;;;;;1999.90;999.90;;;;;;;;;;6220556;23;20021;-86
2023/10/03 11:58:28;;;;;;;1999.90;999.90;;;;;;;;;;6221938;23;20485;-86
2023/10/03 12:00:55;;;;;;;1999.90;999.90;;;;;;;;;;6219245;23;20024;-88
2023/10/03 12:03:21;;;;;;;1999.90;999.90;;;;;;;;;;6217386;23;20111;-87
2023/10/03 12:05:50;;;;;;;1999.90;999.90;;;;;;;;;;6217790;23;20398;-87
2023/10/03 12:08:16;;;;;;;1999.90;999.90;;;;;;;;;;6219197;23;20020;-88
2023/10/03 12:10:43;;;;;;;1999.90;999.90;;;;;;;;;;6222039;23;20071;-88
2023/10/03 12:13:21;;;;;;;1999.90;999.90;;;;;;;;;;6223260;23;20331;-84
2023/10/03 12:15:50;;;;;;;1999.90;999.90;;;;;;;;;;6222023;23;20079;-89
2023/10/03 12:18:17;;;;;;;1999.90;999.90;;;;;;;;;;6220023;23;20406;-87
2023/10/03 12:20:45;;;;;;;1999.90;999.90;;;;;;;;;;6223713;23;20036;-89
2023/10/03 12:23:12;;;;;;;1999.90;999.90;;;;;;;;;;6217158;23;20071;-85
2023/10/03 12:25:38;;;;;;;1999.90;999.90;;;;;;;;;;6221004;23;20052;-87
2023/10/03 12:28:05;;;;;;;1999.90;999.90;;;;;;;;;;6215491;23;20048;-89
2023/10/03 12:30:32;;;;;;;1999.90;999.90;;;;;;;;;;6215300;23;20017;-89
2023/10/03 12:33:00;;;;;;;1999.90;999.90;;;;;;;;;;6215773;23;20338;-86
2023/10/03 12:35:27;;;;;;;1999.90;999.90;;;;;;;;;;6215679;23;20023;-89
2023/10/03 12:37:58;;;;;;;1999.90;999.90;;;;;;;;;;6216154;23;20023;-88
2023/10/03 12:40:25;;;;;;;1999.90;999.90;;;;;;;;;;6217409;23;20023;-87
2023/10/03 12:42:56;;;;;;;1999.90;999.90;;;;;;;;;;6216185;23;20027;-86
2023/10/03 12:45:24;;;;;;;1999.90;999.90;;;;;;;;;;6215967;23;20040;-86
2023/10/03 12:47:53;;;;;;;1999.90;999.90;;;;;;;;;;6215266;23;20059;-88
2023/10/03 12:50:23;;;;;;;1999.90;999.90;;;;;;;;;;6216293;23;20091;-87
2023/10/03 12:52:50;;;;;;;1999.90;999.90;;;;;;;;;;6215495;23;20017;-90
2023/10/03 12:55:18;;;;;;;1999.90;999.90;;;;;;;;;;6215734;23;20021;-86
2023/10/03 12:57:46;;;;;;;1999.90;999.90;;;;;;;;;;6215627;23;20340;-86
2023/10/03 13:00:18;;;;;;;1999.90;999.90;;;;;;;;;;6215064;23;20025;-87
2023/10/03 13:02:45;;;;;;;1999.90;999.90;;;;;;;;;;6214979;23;20020;-87
2023/10/03 13:05:12;;;;;;;1999.90;999.90;;;;;;;;;;6214460;23;20025;-86
2023/10/03 13:07:40;;;;;;;1999.90;999.90;;;;;;;;;;6214939;23;20447;-90
2023/10/03 13:10:12;;;;;;;1999.90;999.90;;;;;;;;;;6225399;23;20068;-88
2023/10/03 13:12:41;;;;;;;1999.90;999.90;;;;;;;;;;6219909;23;20017;-85
2023/10/03 13:15:10;;;;;;;1999.90;999.90;;;;;;;;;;6215959;23;20016;-89
2023/10/03 13:17:37;;;;;;;1999.90;999.90;;;;;;;;;;6218333;23;20021;-88
2023/10/03 13:20:04;;;;;;;1999.90;999.90;;;;;;;;;;6216596;23;20347;-86
2023/10/03 13:22:32;;;;;;;1999.90;999.90;;;;;;;;;;6215629;23;20028;-88
2023/10/03 13:25:00;;;;;;;1999.90;999.90;;;;;;;;;;6219403;23;20391;-83
2023/10/03 13:27:27;;;;;;;1999.90;999.90;;;;;;;;;;6215109;23;20027;-83
2023/10/03 13:29:54;;;;;;;1999.90;999.90;;;;;;;;;;6214848;23;20396;-85
2023/10/03 13:32:21;;;;;;;1999.90;999.90;;;;;;;;;;6217718;23;20082;-87
2023/10/03 13:34:47;;;;;;;1999.90;999.90;;;;;;;;;;6218314;23;20442;-93
2023/10/03 13:37:15;;;;;;;1999.90;999.90;;;;;;;;;;6215603;23;20026;-84
2023/10/03 13:39:42;;;;;;;1999.90;999.90;;;;;;;;;;6216466;23;20104;-88
2023/10/03 13:42:10;;;;;;;1999.90;999.90;;;;;;;;;;6215380;23;20482;-83
2023/10/03 13:44:40;;;;;;;1999.90;999.90;;;;;;;;;;6217299;23;20379;-88
2023/10/03 13:47:07;;;;;;;1999.90;999.90;;;;;;;;;;6220209;23;20020;-89
2023/10/03 13:49:34;;;;;;;1999.90;999.90;;;;;;;;;;6219754;23;20081;-88
2023/10/03 13:52:04;;;;;;;1999.90;999.90;;;;;;;;;;6220622;23;20023;-91